sensor_id;sensor_type;location;lat;lon;timestamp;P1;durP1;ratioP1;P2;durP2;ratioP2
45684;SDS011;46836;48.388;16.210;2023-05-08T00:02:06;10.18;;;8.50;;
45684;SDS011;46836;48.388;16.210;2023-05-08T00:04:33;14.25;;;9.80;;
45684;SDS011;46836;48.388;16.210;2023-05-08T00:07:00;9.93;;;8.27;;
45684;SDS011;46836;48.388;16.210;2023-05-08T00:09:27;7.57;;;6.85;;
45684;SDS011;46836;48.388;16.210;2023-05-08T00:11:54;10.90;;;8.93;;
45684;SDS011;46836;48.388;16.210;2023-05-08T00:14:21;10.75;;;8.25;;
45684;SDS011;46836;48.388;16.210;2023-05-08T00:16:48;13.35;;;8.70;;
45684;SDS011;46836;48.388;16.210;2023-05-08T00:19:16;11.30;;;8.85;;
45684;SDS011;46836;48.388;16.210;2023-05-08T00:21:43;10.25;;;8.68;;
45684;SDS011;46836;48.388;16.210;2023-05-08T00:24:10;12.10;;;8.98;;
45684;SDS011;46836;48.388;16.210;2023-05-08T00:26:37;12.93;;;9.52;;
45684;SDS011;46836;48.388;16.210;2023-05-08T00:29:04;13.55;;;10.13;;
45684;SDS011;46836;48.388;16.210;2023-05-08T00:31:32;10.82;;;8.10;;
45684;SDS011;46836;48.388;16.210;2023-05-08T00:33:59;12.90;;;8.90;;
45684;SDS011;46836;48.388;16.210;2023-05-08T00:36:26;11.45;;;8.88;;
45684;SDS011;46836;48.388;16.210;2023-05-08T00:38:53;13.23;;;9.18;;
45684;SDS011;46836;48.388;16.210;2023-05-08T00:41:20;11.82;;;8.70;;
45684;SDS011;46836;48.388;16.210;2023-05-08T00:43:47;10.55;;;8.70;;
45684;SDS011;46836;48.388;16.210;2023-05-08T00:46:14;13.43;;;9.32;;
45684;SDS011;46836;48.388;16.210;2023-05-08T00:48:42;10.38;;;8.20;;
45684;SDS011;46836;48.388;16.210;2023-05-08T00:51:10;10.65;;;8.60;;
45684;SDS011;46836;48.388;16.210;2023-05-08T00:53:38;10.82;;;7.70;;
45684;SDS011;46836;48.388;16.210;2023-05-08T00:56:12;10.50;;;8.43;;
45684;SDS011;46836;48.388;16.210;2023-05-08T00:58:41;11.43;;;8.85;;
45684;SDS011;46836;48.388;16.210;2023-05-08T01:01:09;11.15;;;8.00;;
45684;SDS011;46836;48.388;16.210;2023-05-08T01:03:37;12.85;;;8.93;;
45684;SDS011;46836;48.388;16.210;2023-05-08T01:06:05;11.05;;;8.20;;
45684;SDS011;46836;48.388;16.210;2023-05-08T01:08:32;10.68;;;9.32;;
45684;SDS011;46836;48.388;16.210;2023-05-08T01:11:15;12.25;;;8.88;;
45684;SDS011;46836;48.388;16.210;2023-05-08T01:21:37;11.48;;;8.30;;
45684;SDS011;46836;48.388;16.210;2023-05-08T01:24:25;11.27;;;8.23;;
45684;SDS011;46836;48.388;16.210;2023-05-08T01:30:03;9.40;;;7.57;;
45684;SDS011;46836;48.388;16.210;2023-05-08T01:35:49;10.52;;;7.95;;
45684;SDS011;46836;48.388;16.210;2023-05-08T01:40:55;9.30;;;7.10;;
45684;SDS011;46836;48.388;16.210;2023-05-08T01:46:08;10.07;;;7.97;;
45684;SDS011;46836;48.388;16.210;2023-05-08T01:48:43;8.35;;;7.47;;
45684;SDS011;46836;48.388;16.210;2023-05-08T01:51:20;10.30;;;8.60;;
45684;SDS011;46836;48.388;16.210;2023-05-08T01:53:59;7.35;;;6.40;;
45684;SDS011;46836;48.388;16.210;2023-05-08T01:56:31;10.43;;;8.45;;
45684;SDS011;46836;48.388;16.210;2023-05-08T01:58:59;9.57;;;7.55;;
45684;SDS011;46836;48.388;16.210;2023-05-08T02:01:29;8.70;;;6.88;;
45684;SDS011;46836;48.388;16.210;2023-05-08T02:03:58;8.55;;;6.90;;
45684;SDS011;46836;48.388;16.210;2023-05-08T02:06:26;10.30;;;7.80;;
45684;SDS011;46836;48.388;16.210;2023-05-08T02:08:54;8.05;;;7.25;;
45684;SDS011;46836;48.388;16.210;2023-05-08T02:11:23;9.32;;;7.40;;
45684;SDS011;46836;48.388;16.210;2023-05-08T02:13:51;9.13;;;8.05;;
45684;SDS011;46836;48.388;16.210;2023-05-08T02:16:19;9.65;;;7.10;;
45684;SDS011;46836;48.388;16.210;2023-05-08T02:18:54;7.78;;;6.95;;
45684;SDS011;46836;48.388;16.210;2023-05-08T02:21:24;8.85;;;7.35;;
45684;SDS011;46836;48.388;16.210;2023-05-08T02:23:52;11.38;;;7.55;;
45684;SDS011;46836;48.388;16.210;2023-05-08T02:26:22;8.55;;;7.47;;
45684;SDS011;46836;48.388;16.210;2023-05-08T02:28:51;9.70;;;6.63;;
45684;SDS011;46836;48.388;16.210;2023-05-08T02:31:19;7.50;;;6.35;;
45684;SDS011;46836;48.388;16.210;2023-05-08T02:33:48;8.88;;;7.28;;
45684;SDS011;46836;48.388;16.210;2023-05-08T02:36:16;9.52;;;8.23;;
45684;SDS011;46836;48.388;16.210;2023-05-08T02:38:46;10.63;;;8.02;;
45684;SDS011;46836;48.388;16.210;2023-05-08T02:41:18;10.30;;;7.60;;
45684;SDS011;46836;48.388;16.210;2023-05-08T02:43:50;8.93;;;7.05;;
45684;SDS011;46836;48.388;16.210;2023-05-08T02:49:29;8.32;;;7.45;;
45684;SDS011;46836;48.388;16.210;2023-05-08T02:55:03;9.52;;;7.20;;
45684;SDS011;46836;48.388;16.210;2023-05-08T03:00:59;11.18;;;7.55;;
45684;SDS011;46836;48.388;16.210;2023-05-08T03:03:39;7.20;;;6.45;;
45684;SDS011;46836;48.388;16.210;2023-05-08T03:06:15;9.15;;;7.70;;
45684;SDS011;46836;48.388;16.210;2023-05-08T03:08:45;9.55;;;7.50;;
45684;SDS011;46836;48.388;16.210;2023-05-08T03:11:14;9.70;;;7.40;;
45684;SDS011;46836;48.388;16.210;2023-05-08T03:13:50;11.90;;;7.68;;
45684;SDS011;46836;48.388;16.210;2023-05-08T03:16:23;9.40;;;7.05;;
45684;SDS011;46836;48.388;16.210;2023-05-08T03:18:57;9.85;;;7.25;;
45684;SDS011;46836;48.388;16.210;2023-05-08T03:21:27;9.05;;;7.78;;
45684;SDS011;46836;48.388;16.210;2023-05-08T03:23:56;8.50;;;7.43;;
45684;SDS011;46836;48.388;16.210;2023-05-08T03:26:25;7.95;;;6.80;;
45684;SDS011;46836;48.388;16.210;2023-05-08T03:28:52;10.30;;;7.68;;
45684;SDS011;46836;48.388;16.210;2023-05-08T03:31:21;9.40;;;7.13;;
45684;SDS011;46836;48.388;16.210;2023-05-08T03:33:51;10.35;;;8.30;;
45684;SDS011;46836;48.388;16.210;2023-05-08T03:36:20;10.80;;;8.05;;
45684;SDS011;46836;48.388;16.210;2023-05-08T03:38:48;8.77;;;7.38;;
45684;SDS011;46836;48.388;16.210;2023-05-08T03:41:15;10.25;;;8.10;;
45684;SDS011;46836;48.388;16.210;2023-05-08T03:43:42;8.77;;;6.78;;
45684;SDS011;46836;48.388;16.210;2023-05-08T03:46:09;10.43;;;8.10;;
45684;SDS011;46836;48.388;16.210;2023-05-08T03:48:37;8.73;;;7.20;;
45684;SDS011;46836;48.388;16.210;2023-05-08T03:51:06;9.98;;;7.47;;
45684;SDS011;46836;48.388;16.210;2023-05-08T03:53:33;9.10;;;7.65;;
45684;SDS011;46836;48.388;16.210;2023-05-08T03:56:00;9.27;;;7.40;;
45684;SDS011;46836;48.388;16.210;2023-05-08T03:58:36;8.77;;;7.10;;
45684;SDS011;46836;48.388;16.210;2023-05-08T04:01:17;8.65;;;7.18;;
45684;SDS011;46836;48.388;16.210;2023-05-08T04:09:43;8.70;;;7.00;;
45684;SDS011;46836;48.388;16.210;2023-05-08T04:12:35;8.93;;;7.93;;
45684;SDS011;46836;48.388;16.210;2023-05-08T04:15:26;9.55;;;6.80;;
45684;SDS011;46836;48.388;16.210;2023-05-08T04:17:59;9.50;;;7.25;;
45684;SDS011;46836;48.388;16.210;2023-05-08T04:20:32;10.23;;;7.13;;
45684;SDS011;46836;48.388;16.210;2023-05-08T04:23:00;12.70;;;7.90;;
45684;SDS011;46836;48.388;16.210;2023-05-08T04:25:29;9.48;;;7.38;;
45684;SDS011;46836;48.388;16.210;2023-05-08T04:27:59;9.65;;;7.88;;
45684;SDS011;46836;48.388;16.210;2023-05-08T04:30:27;10.13;;;7.90;;
45684;SDS011;46836;48.388;16.210;2023-05-08T04:32:55;15.77;;;7.97;;
45684;SDS011;46836;48.388;16.210;2023-05-08T04:35:25;8.45;;;7.00;;
45684;SDS011;46836;48.388;16.210;2023-05-08T04:37:52;11.10;;;7.50;;
45684;SDS011;46836;48.388;16.210;2023-05-08T04:40:19;10.20;;;6.50;;
45684;SDS011;46836;48.388;16.210;2023-05-08T04:42:46;9.93;;;7.10;;
45684;SDS011;46836;48.388;16.210;2023-05-08T04:45:13;9.15;;;7.00;;
45684;SDS011;46836;48.388;16.210;2023-05-08T04:47:40;9.38;;;7.00;;
45684;SDS011;46836;48.388;16.210;2023-05-08T04:50:08;7.28;;;6.50;;
45684;SDS011;46836;48.388;16.210;2023-05-08T04:52:35;8.60;;;6.85;;
45684;SDS011;46836;48.388;16.210;2023-05-08T04:55:03;10.50;;;7.25;;
45684;SDS011;46836;48.388;16.210;2023-05-08T04:57:30;8.13;;;7.25;;
45684;SDS011;46836;48.388;16.210;2023-05-08T04:59:57;8.73;;;5.95;;
45684;SDS011;46836;48.388;16.210;2023-05-08T05:02:27;9.18;;;7.18;;
45684;SDS011;46836;48.388;16.210;2023-05-08T05:04:54;8.70;;;6.80;;
45684;SDS011;46836;48.388;16.210;2023-05-08T05:07:24;7.30;;;6.07;;
45684;SDS011;46836;48.388;16.210;2023-05-08T05:09:51;8.73;;;7.15;;
45684;SDS011;46836;48.388;16.210;2023-05-08T05:12:18;7.20;;;5.72;;
45684;SDS011;46836;48.388;16.210;2023-05-08T05:14:45;8.40;;;6.68;;
45684;SDS011;46836;48.388;16.210;2023-05-08T05:17:12;9.65;;;6.90;;
45684;SDS011;46836;48.388;16.210;2023-05-08T05:19:39;6.20;;;5.60;;
45684;SDS011;46836;48.388;16.210;2023-05-08T05:22:06;7.28;;;5.85;;
45684;SDS011;46836;48.388;16.210;2023-05-08T05:24:33;10.05;;;6.28;;
45684;SDS011;46836;48.388;16.210;2023-05-08T05:27:05;5.88;;;5.25;;
45684;SDS011;46836;48.388;16.210;2023-05-08T05:29:32;7.55;;;5.85;;
45684;SDS011;46836;48.388;16.210;2023-05-08T05:31:59;8.80;;;6.53;;
45684;SDS011;46836;48.388;16.210;2023-05-08T05:34:26;6.35;;;5.50;;
45684;SDS011;46836;48.388;16.210;2023-05-08T05:36:54;8.55;;;6.20;;
45684;SDS011;46836;48.388;16.210;2023-05-08T05:39:21;8.02;;;6.57;;
45684;SDS011;46836;48.388;16.210;2023-05-08T05:41:48;8.65;;;6.43;;
45684;SDS011;46836;48.388;16.210;2023-05-08T05:44:15;7.25;;;6.03;;
45684;SDS011;46836;48.388;16.210;2023-05-08T05:46:43;8.60;;;5.45;;
45684;SDS011;46836;48.388;16.210;2023-05-08T05:49:10;6.40;;;5.72;;
45684;SDS011;46836;48.388;16.210;2023-05-08T05:51:38;7.45;;;5.97;;
45684;SDS011;46836;48.388;16.210;2023-05-08T05:54:05;8.18;;;5.85;;
45684;SDS011;46836;48.388;16.210;2023-05-08T05:56:32;6.30;;;5.53;;
45684;SDS011;46836;48.388;16.210;2023-05-08T05:58:59;6.93;;;6.22;;
45684;SDS011;46836;48.388;16.210;2023-05-08T06:01:26;9.82;;;6.68;;
45684;SDS011;46836;48.388;16.210;2023-05-08T06:03:54;6.88;;;5.75;;
45684;SDS011;46836;48.388;16.210;2023-05-08T06:06:21;6.72;;;5.93;;
45684;SDS011;46836;48.388;16.210;2023-05-08T06:08:48;7.38;;;5.90;;
45684;SDS011;46836;48.388;16.210;2023-05-08T06:11:15;6.70;;;5.95;;
45684;SDS011;46836;48.388;16.210;2023-05-08T06:13:42;6.82;;;5.97;;
45684;SDS011;46836;48.388;16.210;2023-05-08T06:16:09;9.82;;;6.45;;
45684;SDS011;46836;48.388;16.210;2023-05-08T06:18:37;6.60;;;5.75;;
45684;SDS011;46836;48.388;16.210;2023-05-08T06:21:04;6.63;;;5.40;;
45684;SDS011;46836;48.388;16.210;2023-05-08T06:23:31;8.15;;;6.05;;
45684;SDS011;46836;48.388;16.210;2023-05-08T06:25:58;6.80;;;6.10;;
45684;SDS011;46836;48.388;16.210;2023-05-08T06:28:25;8.38;;;6.38;;
45684;SDS011;46836;48.388;16.210;2023-05-08T06:30:53;6.82;;;5.53;;
45684;SDS011;46836;48.388;16.210;2023-05-08T06:33:20;6.10;;;5.20;;
45684;SDS011;46836;48.388;16.210;2023-05-08T06:35:49;6.45;;;5.35;;
45684;SDS011;46836;48.388;16.210;2023-05-08T06:38:16;6.97;;;5.22;;
45684;SDS011;46836;48.388;16.210;2023-05-08T06:40:44;7.03;;;5.45;;
45684;SDS011;46836;48.388;16.210;2023-05-08T06:43:12;9.20;;;6.20;;
45684;SDS011;46836;48.388;16.210;2023-05-08T06:45:39;6.53;;;5.18;;
45684;SDS011;46836;48.388;16.210;2023-05-08T06:48:06;5.75;;;5.15;;
45684;SDS011;46836;48.388;16.210;2023-05-08T06:50:36;6.32;;;5.53;;
45684;SDS011;46836;48.388;16.210;2023-05-08T06:53:03;7.10;;;6.13;;
45684;SDS011;46836;48.388;16.210;2023-05-08T06:55:30;5.82;;;4.93;;
45684;SDS011;46836;48.388;16.210;2023-05-08T06:57:58;5.82;;;4.95;;
45684;SDS011;46836;48.388;16.210;2023-05-08T07:00:25;4.80;;;4.28;;
45684;SDS011;46836;48.388;16.210;2023-05-08T07:02:52;7.22;;;5.55;;
45684;SDS011;46836;48.388;16.210;2023-05-08T07:05:19;6.38;;;5.63;;
45684;SDS011;46836;48.388;16.210;2023-05-08T07:07:46;10.18;;;5.40;;
45684;SDS011;46836;48.388;16.210;2023-05-08T07:10:13;5.88;;;5.30;;
45684;SDS011;46836;48.388;16.210;2023-05-08T07:12:40;5.88;;;4.82;;
45684;SDS011;46836;48.388;16.210;2023-05-08T07:15:07;6.40;;;5.20;;
45684;SDS011;46836;48.388;16.210;2023-05-08T07:17:50;6.15;;;4.80;;
45684;SDS011;46836;48.388;16.210;2023-05-08T07:20:17;5.60;;;4.95;;
45684;SDS011;46836;48.388;16.210;2023-05-08T07:22:44;5.45;;;4.80;;
45684;SDS011;46836;48.388;16.210;2023-05-08T07:25:12;5.28;;;4.30;;
45684;SDS011;46836;48.388;16.210;2023-05-08T07:27:39;5.28;;;4.75;;
45684;SDS011;46836;48.388;16.210;2023-05-08T07:30:06;5.10;;;4.60;;
45684;SDS011;46836;48.388;16.210;2023-05-08T07:32:34;5.38;;;4.88;;
45684;SDS011;46836;48.388;16.210;2023-05-08T07:35:01;5.38;;;4.88;;
45684;SDS011;46836;48.388;16.210;2023-05-08T07:37:29;5.50;;;5.00;;
45684;SDS011;46836;48.388;16.210;2023-05-08T07:39:56;4.55;;;4.13;;
45684;SDS011;46836;48.388;16.210;2023-05-08T07:42:23;5.28;;;4.78;;
45684;SDS011;46836;48.388;16.210;2023-05-08T07:44:50;4.63;;;4.22;;
45684;SDS011;46836;48.388;16.210;2023-05-08T07:47:20;5.18;;;4.53;;
45684;SDS011;46836;48.388;16.210;2023-05-08T07:49:48;7.05;;;5.13;;
45684;SDS011;46836;48.388;16.210;2023-05-08T07:52:15;6.82;;;5.15;;
45684;SDS011;46836;48.388;16.210;2023-05-08T07:54:42;5.05;;;4.55;;
45684;SDS011;46836;48.388;16.210;2023-05-08T07:57:09;5.82;;;5.10;;
45684;SDS011;46836;48.388;16.210;2023-05-08T07:59:37;6.70;;;4.68;;
45684;SDS011;46836;48.388;16.210;2023-05-08T08:02:04;4.95;;;4.40;;
45684;SDS011;46836;48.388;16.210;2023-05-08T08:04:33;4.50;;;4.10;;
45684;SDS011;46836;48.388;16.210;2023-05-08T08:07:00;5.53;;;5.03;;
45684;SDS011;46836;48.388;16.210;2023-05-08T08:09:27;5.32;;;4.80;;
45684;SDS011;46836;48.388;16.210;2023-05-08T08:11:54;5.05;;;4.45;;
45684;SDS011;46836;48.388;16.210;2023-05-08T08:14:21;4.40;;;4.00;;
45684;SDS011;46836;48.388;16.210;2023-05-08T08:16:48;4.45;;;3.92;;
45684;SDS011;46836;48.388;16.210;2023-05-08T08:19:15;5.40;;;4.65;;
45684;SDS011;46836;48.388;16.210;2023-05-08T08:21:43;6.00;;;4.60;;
45684;SDS011;46836;48.388;16.210;2023-05-08T08:24:11;5.18;;;4.60;;
45684;SDS011;46836;48.388;16.210;2023-05-08T08:26:39;6.65;;;3.85;;
45684;SDS011;46836;48.388;16.210;2023-05-08T08:29:06;5.18;;;4.65;;
45684;SDS011;46836;48.388;16.210;2023-05-08T08:31:33;4.93;;;4.43;;
45684;SDS011;46836;48.388;16.210;2023-05-08T08:34:00;8.85;;;4.60;;
45684;SDS011;46836;48.388;16.210;2023-05-08T08:36:27;6.68;;;4.75;;
45684;SDS011;46836;48.388;16.210;2023-05-08T08:38:54;5.40;;;4.05;;
45684;SDS011;46836;48.388;16.210;2023-05-08T08:41:21;4.80;;;4.30;;
45684;SDS011;46836;48.388;16.210;2023-05-08T08:43:48;5.05;;;4.55;;
45684;SDS011;46836;48.388;16.210;2023-05-08T08:46:16;5.13;;;4.60;;
45684;SDS011;46836;48.388;16.210;2023-05-08T08:48:49;4.85;;;4.22;;
45684;SDS011;46836;48.388;16.210;2023-05-08T08:51:26;4.28;;;3.88;;
45684;SDS011;46836;48.388;16.210;2023-05-08T08:54:12;5.80;;;4.65;;
45684;SDS011;46836;48.388;16.210;2023-05-08T08:56:43;5.72;;;4.45;;
45684;SDS011;46836;48.388;16.210;2023-05-08T08:59:12;6.40;;;4.50;;
45684;SDS011;46836;48.388;16.210;2023-05-08T09:01:47;5.00;;;4.43;;
45684;SDS011;46836;48.388;16.210;2023-05-08T09:04:16;6.00;;;5.32;;
45684;SDS011;46836;48.388;16.210;2023-05-08T09:06:44;6.78;;;4.78;;
45684;SDS011;46836;48.388;16.210;2023-05-08T09:09:12;4.80;;;4.25;;
45684;SDS011;46836;48.388;16.210;2023-05-08T09:11:39;6.57;;;4.43;;
45684;SDS011;46836;48.388;16.210;2023-05-08T09:14:08;4.75;;;4.30;;
45684;SDS011;46836;48.388;16.210;2023-05-08T09:16:35;3.80;;;3.50;;
45684;SDS011;46836;48.388;16.210;2023-05-08T09:19:03;9.10;;;4.60;;
45684;SDS011;46836;48.388;16.210;2023-05-08T09:21:30;4.60;;;4.20;;
45684;SDS011;46836;48.388;16.210;2023-05-08T09:24:01;5.95;;;4.95;;
45684;SDS011;46836;48.388;16.210;2023-05-08T09:26:33;5.10;;;4.60;;
45684;SDS011;46836;48.388;16.210;2023-05-08T09:29:12;5.75;;;5.03;;
45684;SDS011;46836;48.388;16.210;2023-05-08T09:31:44;5.20;;;4.70;;
45684;SDS011;46836;48.388;16.210;2023-05-08T09:34:23;4.57;;;4.18;;
45684;SDS011;46836;48.388;16.210;2023-05-08T09:39:37;6.63;;;5.07;;
45684;SDS011;46836;48.388;16.210;2023-05-08T09:42:08;4.60;;;4.20;;
45684;SDS011;46836;48.388;16.210;2023-05-08T09:44:49;4.82;;;3.95;;
45684;SDS011;46836;48.388;16.210;2023-05-08T09:47:18;7.13;;;4.93;;
45684;SDS011;46836;48.388;16.210;2023-05-08T09:50:01;4.65;;;4.20;;
45684;SDS011;46836;48.388;16.210;2023-05-08T09:52:32;6.20;;;4.55;;
45684;SDS011;46836;48.388;16.210;2023-05-08T09:55:00;7.13;;;5.45;;
45684;SDS011;46836;48.388;16.210;2023-05-08T09:57:36;4.70;;;4.20;;
45684;SDS011;46836;48.388;16.210;2023-05-08T10:00:11;7.60;;;5.15;;
45684;SDS011;46836;48.388;16.210;2023-05-08T10:02:40;6.90;;;4.90;;
45684;SDS011;46836;48.388;16.210;2023-05-08T10:05:28;5.20;;;4.70;;
45684;SDS011;46836;48.388;16.210;2023-05-08T10:07:58;5.05;;;4.40;;
45684;SDS011;46836;48.388;16.210;2023-05-08T10:10:45;4.85;;;4.45;;
45684;SDS011;46836;48.388;16.210;2023-05-08T10:13:12;5.70;;;4.82;;
45684;SDS011;46836;48.388;16.210;2023-05-08T10:15:41;4.55;;;4.15;;
45684;SDS011;46836;48.388;16.210;2023-05-08T10:18:09;5.72;;;5.10;;
45684;SDS011;46836;48.388;16.210;2023-05-08T10:20:38;5.78;;;5.18;;
45684;SDS011;46836;48.388;16.210;2023-05-08T10:23:07;5.47;;;4.28;;
45684;SDS011;46836;48.388;16.210;2023-05-08T10:25:43;6.20;;;4.75;;
45684;SDS011;46836;48.388;16.210;2023-05-08T10:31:17;8.75;;;5.45;;
45684;SDS011;46836;48.388;16.210;2023-05-08T10:33:47;6.45;;;4.32;;
45684;SDS011;46836;48.388;16.210;2023-05-08T10:36:19;5.82;;;4.40;;
45684;SDS011;46836;48.388;16.210;2023-05-08T10:38:48;7.35;;;4.82;;
45684;SDS011;46836;48.388;16.210;2023-05-08T10:41:16;4.95;;;4.45;;
45684;SDS011;46836;48.388;16.210;2023-05-08T10:43:45;6.20;;;4.80;;
45684;SDS011;46836;48.388;16.210;2023-05-08T10:46:21;5.65;;;5.05;;
45684;SDS011;46836;48.388;16.210;2023-05-08T10:49:07;5.05;;;4.47;;
45684;SDS011;46836;48.388;16.210;2023-05-08T10:54:18;6.00;;;5.40;;
45684;SDS011;46836;48.388;16.210;2023-05-08T10:57:08;5.83;;;4.93;;
45684;SDS011;46836;48.388;16.210;2023-05-08T10:59:36;4.70;;;4.20;;
45684;SDS011;46836;48.388;16.210;2023-05-08T11:02:04;4.90;;;4.10;;
45684;SDS011;46836;48.388;16.210;2023-05-08T11:04:33;5.10;;;3.50;;
45684;SDS011;46836;48.388;16.210;2023-05-08T11:07:00;4.90;;;4.20;;
45684;SDS011;46836;48.388;16.210;2023-05-08T11:09:43;8.23;;;4.40;;
45684;SDS011;46836;48.388;16.210;2023-05-08T11:12:25;4.17;;;3.77;;
45684;SDS011;46836;48.388;16.210;2023-05-08T11:14:54;4.43;;;3.83;;
45684;SDS011;46836;48.388;16.210;2023-05-08T11:17:32;3.90;;;3.60;;
45684;SDS011;46836;48.388;16.210;2023-05-08T11:20:03;4.67;;;4.07;;
45684;SDS011;46836;48.388;16.210;2023-05-08T11:22:35;4.73;;;4.20;;
45684;SDS011;46836;48.388;16.210;2023-05-08T11:25:04;5.50;;;4.43;;
45684;SDS011;46836;48.388;16.210;2023-05-08T11:27:38;39.63;;;9.07;;
45684;SDS011;46836;48.388;16.210;2023-05-08T11:30:33;6.03;;;4.80;;
45684;SDS011;46836;48.388;16.210;2023-05-08T11:38:19;8.90;;;4.00;;
45684;SDS011;46836;48.388;16.210;2023-05-08T11:40:55;12.67;;;5.60;;
45684;SDS011;46836;48.388;16.210;2023-05-08T11:46:14;6.30;;;4.30;;
45684;SDS011;46836;48.388;16.210;2023-05-08T11:48:44;5.97;;;4.50;;
45684;SDS011;46836;48.388;16.210;2023-05-08T11:51:11;6.30;;;4.67;;
45684;SDS011;46836;48.388;16.210;2023-05-08T11:53:39;4.00;;;3.60;;
45684;SDS011;46836;48.388;16.210;2023-05-08T11:56:06;5.20;;;4.20;;
45684;SDS011;46836;48.388;16.210;2023-05-08T11:58:33;4.00;;;3.60;;
45684;SDS011;46836;48.388;16.210;2023-05-08T12:01:01;4.67;;;3.60;;
45684;SDS011;46836;48.388;16.210;2023-05-08T12:03:28;4.17;;;3.77;;
45684;SDS011;46836;48.388;16.210;2023-05-08T12:05:56;4.07;;;3.30;;
45684;SDS011;46836;48.388;16.210;2023-05-08T12:08:25;3.93;;;3.33;;
45684;SDS011;46836;48.388;16.210;2023-05-08T12:10:53;3.10;;;2.90;;
45684;SDS011;46836;48.388;16.210;2023-05-08T12:15:51;8.30;;;3.97;;
45684;SDS011;46836;48.388;16.210;2023-05-08T12:18:19;4.20;;;3.50;;
45684;SDS011;46836;48.388;16.210;2023-05-08T12:20:51;4.43;;;4.03;;
45684;SDS011;46836;48.388;16.210;2023-05-08T12:23:26;4.17;;;3.77;;
45684;SDS011;46836;48.388;16.210;2023-05-08T12:25:58;4.20;;;3.80;;
45684;SDS011;46836;48.388;16.210;2023-05-08T12:28:26;3.60;;;3.30;;
45684;SDS011;46836;48.388;16.210;2023-05-08T12:30:54;3.77;;;3.47;;
45684;SDS011;46836;48.388;16.210;2023-05-08T12:33:22;5.20;;;4.03;;
45684;SDS011;46836;48.388;16.210;2023-05-08T12:35:49;4.03;;;3.53;;
45684;SDS011;46836;48.388;16.210;2023-05-08T12:38:16;3.97;;;3.57;;
45684;SDS011;46836;48.388;16.210;2023-05-08T12:40:44;6.27;;;3.90;;
45684;SDS011;46836;48.388;16.210;2023-05-08T12:43:14;4.20;;;3.80;;
45684;SDS011;46836;48.388;16.210;2023-05-08T12:45:41;5.27;;;3.50;;
45684;SDS011;46836;48.388;16.210;2023-05-08T12:48:09;3.80;;;2.90;;
45684;SDS011;46836;48.388;16.210;2023-05-08T12:50:38;3.90;;;2.97;;
45684;SDS011;46836;48.388;16.210;2023-05-08T12:53:13;3.40;;;3.10;;
45684;SDS011;46836;48.388;16.210;2023-05-08T12:55:54;5.33;;;2.70;;
45684;SDS011;46836;48.388;16.210;2023-05-08T12:58:23;4.60;;;3.20;;
45684;SDS011;46836;48.388;16.210;2023-05-08T13:00:51;3.47;;;3.17;;
45684;SDS011;46836;48.388;16.210;2023-05-08T13:03:28;4.90;;;3.40;;
45684;SDS011;46836;48.388;16.210;2023-05-08T13:05:56;3.60;;;3.30;;
45684;SDS011;46836;48.388;16.210;2023-05-08T13:08:32;3.63;;;3.33;;
45684;SDS011;46836;48.388;16.210;2023-05-08T13:11:01;3.87;;;3.57;;
45684;SDS011;46836;48.388;16.210;2023-05-08T13:13:30;4.50;;;4.10;;
45684;SDS011;46836;48.388;16.210;2023-05-08T13:16:04;6.00;;;3.57;;
45684;SDS011;46836;48.388;16.210;2023-05-08T13:18:32;4.23;;;3.67;;
45684;SDS011;46836;48.388;16.210;2023-05-08T13:21:02;3.23;;;2.93;;
45684;SDS011;46836;48.388;16.210;2023-05-08T13:23:29;4.10;;;3.20;;
45684;SDS011;46836;48.388;16.210;2023-05-08T13:25:56;3.47;;;3.17;;
45684;SDS011;46836;48.388;16.210;2023-05-08T13:28:23;4.03;;;3.60;;
45684;SDS011;46836;48.388;16.210;2023-05-08T13:30:50;3.50;;;3.20;;
45684;SDS011;46836;48.388;16.210;2023-05-08T13:33:17;3.20;;;2.83;;
45684;SDS011;46836;48.388;16.210;2023-05-08T13:35:44;4.63;;;3.43;;
45684;SDS011;46836;48.388;16.210;2023-05-08T13:38:11;3.20;;;2.90;;
45684;SDS011;46836;48.388;16.210;2023-05-08T13:40:38;3.50;;;3.20;;
45684;SDS011;46836;48.388;16.210;2023-05-08T13:43:05;3.30;;;3.00;;
45684;SDS011;46836;48.388;16.210;2023-05-08T13:45:32;3.33;;;3.03;;
45684;SDS011;46836;48.388;16.210;2023-05-08T13:47:59;4.60;;;3.07;;
45684;SDS011;46836;48.388;16.210;2023-05-08T13:50:26;3.20;;;2.70;;
45684;SDS011;46836;48.388;16.210;2023-05-08T13:52:55;4.10;;;3.03;;
45684;SDS011;46836;48.388;16.210;2023-05-08T13:55:22;3.30;;;3.00;;
45684;SDS011;46836;48.388;16.210;2023-05-08T13:57:49;3.20;;;2.87;;
45684;SDS011;46836;48.388;16.210;2023-05-08T14:00:16;5.93;;;2.53;;
45684;SDS011;46836;48.388;16.210;2023-05-08T14:02:43;3.33;;;3.03;;
45684;SDS011;46836;48.388;16.210;2023-05-08T14:05:11;3.13;;;2.83;;
45684;SDS011;46836;48.388;16.210;2023-05-08T14:07:39;3.77;;;3.07;;
45684;SDS011;46836;48.388;16.210;2023-05-08T14:10:06;3.90;;;3.50;;
45684;SDS011;46836;48.388;16.210;2023-05-08T14:12:33;4.80;;;3.30;;
45684;SDS011;46836;48.388;16.210;2023-05-08T14:15:05;4.00;;;2.90;;
45684;SDS011;46836;48.388;16.210;2023-05-08T14:17:32;3.20;;;2.90;;
45684;SDS011;46836;48.388;16.210;2023-05-08T14:20:00;3.27;;;2.97;;
45684;SDS011;46836;48.388;16.210;2023-05-08T14:22:26;4.27;;;3.37;;
45684;SDS011;46836;48.388;16.210;2023-05-08T14:24:53;2.97;;;2.53;;
45684;SDS011;46836;48.388;16.210;2023-05-08T14:27:21;5.07;;;2.77;;
45684;SDS011;46836;48.388;16.210;2023-05-08T14:29:48;3.77;;;2.90;;
45684;SDS011;46836;48.388;16.210;2023-05-08T14:32:15;3.10;;;2.80;;
45684;SDS011;46836;48.388;16.210;2023-05-08T14:34:42;3.33;;;3.03;;
45684;SDS011;46836;48.388;16.210;2023-05-08T14:37:09;3.27;;;2.97;;
45684;SDS011;46836;48.388;16.210;2023-05-08T14:39:38;3.57;;;2.90;;
45684;SDS011;46836;48.388;16.210;2023-05-08T14:42:05;3.10;;;2.80;;
45684;SDS011;46836;48.388;16.210;2023-05-08T14:44:48;2.93;;;2.67;;
45684;SDS011;46836;48.388;16.210;2023-05-08T14:47:16;7.50;;;3.23;;
45684;SDS011;46836;48.388;16.210;2023-05-08T14:49:43;2.90;;;2.70;;
45684;SDS011;46836;48.388;16.210;2023-05-08T14:52:10;3.67;;;2.83;;
45684;SDS011;46836;48.388;16.210;2023-05-08T14:54:37;2.47;;;2.27;;
45684;SDS011;46836;48.388;16.210;2023-05-08T14:57:04;3.57;;;2.70;;
45684;SDS011;46836;48.388;16.210;2023-05-08T14:59:31;3.47;;;3.03;;
45684;SDS011;46836;48.388;16.210;2023-05-08T15:01:58;2.60;;;2.40;;
45684;SDS011;46836;48.388;16.210;2023-05-08T15:04:26;3.77;;;3.20;;
45684;SDS011;46836;48.388;16.210;2023-05-08T15:06:53;7.27;;;2.70;;
45684;SDS011;46836;48.388;16.210;2023-05-08T15:09:20;2.40;;;2.20;;
45684;SDS011;46836;48.388;16.210;2023-05-08T15:11:47;5.63;;;2.70;;
45684;SDS011;46836;48.388;16.210;2023-05-08T15:14:14;3.17;;;2.87;;
45684;SDS011;46836;48.388;16.210;2023-05-08T15:16:41;3.33;;;3.03;;
45684;SDS011;46836;48.388;16.210;2023-05-08T15:19:08;8.07;;;3.37;;
45684;SDS011;46836;48.388;16.210;2023-05-08T15:21:35;5.70;;;3.00;;
45684;SDS011;46836;48.388;16.210;2023-05-08T15:24:03;2.80;;;2.60;;
45684;SDS011;46836;48.388;16.210;2023-05-08T15:26:30;5.17;;;2.83;;
45684;SDS011;46836;48.388;16.210;2023-05-08T15:28:57;3.60;;;3.10;;
45684;SDS011;46836;48.388;16.210;2023-05-08T15:31:24;3.60;;;3.30;;
45684;SDS011;46836;48.388;16.210;2023-05-08T15:33:51;2.63;;;2.43;;
45684;SDS011;46836;48.388;16.210;2023-05-08T15:36:18;3.80;;;3.37;;
45684;SDS011;46836;48.388;16.210;2023-05-08T15:38:45;3.27;;;2.97;;
45684;SDS011;46836;48.388;16.210;2023-05-08T15:41:14;9.53;;;4.03;;